createdAt,value
2016-02-16T00:00:01.525Z,0
2016-02-16T00:01:01.496Z,0
2016-02-16T00:02:01.467Z,0
2016-02-16T00:03:01.470Z,0
2016-02-16T00:04:01.395Z,0
2016-02-16T00:05:01.383Z,0
2016-02-16T00:06:01.338Z,0
2016-02-16T00:07:01.325Z,0
2016-02-16T00:08:01.280Z,0
2016-02-16T00:09:01.252Z,0
2016-02-16T00:10:01.224Z,0
2016-02-16T00:11:01.227Z,0
2016-02-16T00:12:01.151Z,0
2016-02-16T00:13:01.138Z,0
2016-02-16T00:14:01.093Z,0
2016-02-16T00:15:01.065Z,0
2016-02-16T00:16:01.021Z,0
2016-02-16T00:17:01.008Z,0
2016-02-16T00:18:00.964Z,0
2016-02-16T00:19:00.935Z,0
2016-02-16T00:20:00.890Z,0
2016-02-16T00:21:00.879Z,0
2016-02-16T00:22:00.865Z,0
2016-02-16T00:23:00.806Z,0
2016-02-16T00:24:00.777Z,0
2016-02-16T00:25:00.764Z,0
2016-02-16T00:26:00.720Z,0
2016-02-16T00:27:00.692Z,0
2016-02-16T00:28:00.647Z,0
2016-02-16T00:29:00.619Z,0
2016-02-16T00:30:00.575Z,0
2016-02-16T00:31:00.561Z,0
2016-02-16T00:32:00.533Z,0
2016-02-16T00:33:00.504Z,0
2016-02-16T00:34:00.461Z,0
2016-02-16T00:35:00.431Z,0
2016-02-16T00:36:00.403Z,0
2016-02-16T00:37:00.374Z,0
2016-02-16T00:38:00.361Z,0
2016-02-16T00:39:00.302Z,0
2016-02-16T00:40:00.289Z,0
2016-02-16T00:41:00.276Z,0
2016-02-16T00:42:00.232Z,0
2016-02-16T00:43:00.172Z,0
2016-02-16T00:44:00.160Z,0
2016-02-16T00:45:00.115Z,0
2016-02-16T00:46:00.118Z,0
2016-02-16T00:47:00.042Z,0
2016-02-16T00:48:00.029Z,0
2016-02-16T00:48:59.985Z,0
2016-02-16T00:50:00.003Z,0
2016-02-16T00:50:59.928Z,0
2016-02-16T00:51:59.915Z,0
2016-02-16T00:52:59.870Z,0
2016-02-16T00:53:59.842Z,0
2016-02-16T00:54:59.798Z,0
2016-02-16T00:55:59.784Z,0
2016-02-16T00:56:59.741Z,0
2016-02-16T00:57:59.697Z,0
2016-02-16T00:58:59.683Z,0
2016-02-16T00:59:59.639Z,0
2016-02-16T01:00:59.611Z,0
2016-02-16T01:01:59.598Z,0
2016-02-16T01:02:59.554Z,0
2016-02-16T01:03:59.525Z,0
2016-02-16T01:04:59.762Z,0
2016-02-16T01:05:59.452Z,0
2016-02-16T01:06:59.424Z,0
2016-02-16T01:07:59.395Z,0
2016-02-16T01:08:59.367Z,0
2016-02-16T01:09:59.322Z,0
2016-02-16T01:10:59.309Z,0
2016-02-16T01:11:59.265Z,0
2016-02-16T01:12:59.237Z,0
2016-02-16T01:13:59.208Z,0
2016-02-16T01:14:59.180Z,0
2016-02-16T01:15:58.995Z,0
2016-02-16T01:16:59.107Z,0
2016-02-16T01:17:59.093Z,0
2016-02-16T01:18:59.034Z,0
2016-02-16T01:19:59.007Z,0
2016-02-16T01:20:58.977Z,0
2016-02-16T01:21:58.948Z,0
2016-02-16T01:22:58.920Z,0
2016-02-16T01:23:58.906Z,0
2016-02-16T01:24:58.863Z,0
2016-02-16T01:25:58.819Z,0
2016-02-16T01:26:58.790Z,0
2016-02-16T01:27:58.762Z,0
2016-02-16T01:28:58.733Z,0
2016-02-16T01:29:58.704Z,0
2016-02-16T01:30:58.676Z,0
2016-02-16T01:31:58.648Z,0
2016-02-16T01:32:58.603Z,0
2016-02-16T01:33:58.575Z,0
2016-02-16T01:34:58.530Z,0
2016-02-16T01:35:58.517Z,0
2016-02-16T01:36:58.488Z,0
2016-02-16T01:37:58.476Z,0
2016-02-16T01:38:58.416Z,0
2016-02-16T01:39:58.403Z,0
2016-02-16T01:40:58.358Z,0
2016-02-16T01:41:58.330Z,0
2016-02-16T01:42:58.286Z,0
2016-02-16T01:43:58.274Z,0
2016-02-16T01:44:58.230Z,0
2016-02-16T01:45:58.201Z,0
2016-02-16T01:46:58.156Z,0
2016-02-16T01:47:58.144Z,0
2016-02-16T01:48:58.099Z,0
2016-02-16T01:49:58.071Z,0
2016-02-16T01:50:58.058Z,0
2016-02-16T01:51:58.013Z,0
2016-02-16T01:52:57.985Z,0
2016-02-16T01:53:57.941Z,0
2016-02-16T01:54:57.928Z,0
2016-02-16T01:55:57.884Z,0
2016-02-16T01:56:57.856Z,0
2016-02-16T01:57:57.826Z,0
2016-02-16T01:58:57.798Z,0
2016-02-16T01:59:57.784Z,0
2016-02-16T02:00:57.741Z,0
2016-02-16T02:01:57.697Z,0
2016-02-16T02:02:57.653Z,0
2016-02-16T02:03:57.670Z,0
2016-02-16T02:04:57.596Z,0
2016-02-16T02:05:57.568Z,0
2016-02-16T02:06:57.540Z,0
2016-02-16T02:07:57.495Z,0
2016-02-16T02:08:57.498Z,0
2016-02-16T02:09:57.453Z,0
2016-02-16T02:10:57.410Z,0
2016-02-16T02:11:57.397Z,0
2016-02-16T02:12:57.353Z,0
2016-02-16T02:13:57.323Z,0
2016-02-16T02:14:57.280Z,0
2016-02-16T02:15:57.251Z,0
2016-02-16T02:16:57.238Z,0
2016-02-16T02:17:57.178Z,0
2016-02-16T02:18:57.166Z,0
2016-02-16T02:19:57.136Z,0
2016-02-16T02:20:57.108Z,0
2016-02-16T02:21:57.064Z,0
2016-02-16T02:22:57.051Z,0
2016-02-16T02:23:57.008Z,0
2016-02-16T02:24:56.978Z,0
2016-02-16T02:25:56.934Z,0
2016-02-16T02:26:56.796Z,0
2016-02-16T02:27:56.877Z,0
2016-02-16T02:28:56.849Z,0
2016-02-16T02:29:56.821Z,0
2016-02-16T02:30:56.791Z,0
2016-02-16T02:31:56.762Z,0
2016-02-16T02:32:56.718Z,0
2016-02-16T02:33:56.707Z,0
2016-02-16T02:34:56.646Z,0
2016-02-16T02:35:56.633Z,0
2016-02-16T02:36:56.589Z,0
2016-02-16T02:37:56.576Z,0
2016-02-16T02:38:56.531Z,0
2016-02-16T02:39:56.488Z,0
2016-02-16T02:40:56.459Z,0
2016-02-16T02:41:56.446Z,0
2016-02-16T02:42:56.417Z,0
2016-02-16T02:43:56.373Z,0
2016-02-16T02:44:56.344Z,0
2016-02-16T02:45:56.316Z,0
2016-02-16T02:46:56.273Z,0
2016-02-16T02:47:56.228Z,0
2016-02-16T02:48:56.214Z,0
2016-02-16T02:49:56.170Z,0
2016-02-16T02:50:56.157Z,0
2016-02-16T02:51:56.114Z,0
2016-02-16T02:52:56.086Z,0
2016-02-16T02:53:56.041Z,0
2016-02-16T02:54:56.012Z,0
2016-02-16T02:55:56.015Z,0
2016-02-16T02:56:55.955Z,0
2016-02-16T02:57:55.927Z,0
2016-02-16T02:58:55.899Z,0
2016-02-16T02:59:55.869Z,0
2016-02-16T03:00:55.810Z,0
2016-02-16T03:01:55.796Z,0
2016-02-16T03:02:55.752Z,0
2016-02-16T03:03:55.740Z,0
2016-02-16T03:04:55.686Z,0
2016-02-16T03:05:55.672Z,0
2016-02-16T03:06:55.629Z,0
2016-02-16T03:07:55.599Z,0
2016-02-16T03:08:55.556Z,0
2016-02-16T03:09:55.543Z,0
2016-02-16T03:10:55.499Z,0
2016-02-16T03:11:55.470Z,0
2016-02-16T03:12:55.441Z,0
2016-02-16T03:13:55.398Z,0
2016-02-16T03:14:55.369Z,0
2016-02-16T03:15:55.324Z,0
2016-02-16T03:16:55.296Z,0
2016-02-16T03:17:55.267Z,0
2016-02-16T03:18:55.239Z,0
2016-02-16T03:19:55.195Z,0
2016-02-16T03:20:55.182Z,0
2016-02-16T03:21:55.138Z,0
2016-02-16T03:22:55.109Z,0
2016-02-16T03:23:55.080Z,0
2016-02-16T03:24:55.036Z,0
2016-02-16T03:25:55.008Z,0
2016-02-16T03:26:54.979Z,0
2016-02-16T03:27:54.951Z,0
2016-02-16T03:28:54.906Z,0
2016-02-16T03:29:54.877Z,0
2016-02-16T03:30:54.849Z,0
2016-02-16T03:31:54.821Z,0
2016-02-16T03:32:54.777Z,0
2016-02-16T03:33:54.748Z,0
2016-02-16T03:34:54.735Z,0
2016-02-16T03:35:54.691Z,0
2016-02-16T03:36:54.646Z,0
2016-02-16T03:37:54.619Z,0
2016-02-16T03:38:54.590Z,0
2016-02-16T03:39:54.561Z,0
2016-02-16T03:40:54.532Z,0
2016-02-16T03:41:54.488Z,0
2016-02-16T03:42:54.459Z,0
2016-02-16T03:43:54.446Z,0
2016-02-16T03:44:54.402Z,0
2016-02-16T03:45:54.374Z,0
2016-02-16T03:46:54.329Z,0
2016-02-16T03:47:54.301Z,0
2016-02-16T03:48:54.256Z,0
2016-02-16T03:49:54.229Z,0
2016-02-16T03:50:54.201Z,0
2016-02-16T03:51:54.171Z,0
2016-02-16T03:52:54.158Z,0
2016-02-16T03:53:54.114Z,0
2016-02-16T03:54:54.070Z,0
2016-02-16T03:55:54.042Z,0
2016-02-16T03:56:54.014Z,0
2016-02-16T03:57:53.969Z,0
2016-02-16T03:58:53.939Z,0
2016-02-16T03:59:53.911Z,0
2016-02-16T04:00:53.867Z,0
2016-02-16T04:01:53.839Z,0
2016-02-16T04:02:53.826Z,0
2016-02-16T04:03:53.782Z,0
2016-02-16T04:04:53.753Z,0
2016-02-16T04:05:53.724Z,0
2016-02-16T04:06:53.696Z,0
2016-02-16T04:07:53.668Z,0
2016-02-16T04:08:53.638Z,0
2016-02-16T04:09:53.594Z,0
2016-02-16T04:10:53.551Z,0
2016-02-16T04:11:53.522Z,0
2016-02-16T04:12:53.494Z,0
2016-02-16T04:13:53.449Z,0
2016-02-16T04:14:53.420Z,0
2016-02-16T04:15:53.393Z,0
2016-02-16T04:16:53.348Z,0
2016-02-16T04:17:53.335Z,0
2016-02-16T04:18:53.307Z,0
2016-02-16T04:19:53.262Z,0
2016-02-16T04:20:53.234Z,0
2016-02-16T04:21:53.206Z,0
2016-02-16T04:22:53.162Z,0
2016-02-16T04:23:53.117Z,0
2016-02-16T04:24:53.088Z,0
2016-02-16T04:25:52.342Z,0
2016-02-16T04:26:53.031Z,0
2016-02-16T04:27:53.003Z,0
2016-02-16T04:28:52.959Z,0
2016-02-16T04:29:52.930Z,0
2016-02-16T04:30:52.898Z,0
2016-02-16T04:31:52.858Z,0
2016-02-16T04:32:52.800Z,0
2016-02-16T04:33:52.758Z,0
2016-02-16T04:34:52.717Z,0
2016-02-16T04:35:52.677Z,0
2016-02-16T04:36:52.643Z,0
2016-02-16T04:37:52.594Z,0
2016-02-16T04:38:52.560Z,0
2016-02-16T04:39:52.511Z,0
2016-02-16T04:40:52.479Z,0
2016-02-16T04:41:52.449Z,0
2016-02-16T04:42:52.419Z,0
2016-02-16T04:43:52.388Z,0
2016-02-16T04:44:52.341Z,0
2016-02-16T04:45:52.298Z,0
2016-02-16T04:46:52.267Z,0
2016-02-16T04:47:52.238Z,0
2016-02-16T04:48:52.209Z,0
2016-02-16T04:49:52.180Z,0
2016-02-16T04:50:52.150Z,0
2016-02-16T04:51:52.106Z,0
2016-02-16T04:52:51.922Z,0
2016-02-16T04:53:52.033Z,0
2016-02-16T04:54:52.004Z,0
2016-02-16T04:55:51.976Z,0
2016-02-16T04:56:51.948Z,0
2016-02-16T04:57:51.918Z,0
2016-02-16T04:58:51.874Z,0
2016-02-16T04:59:51.846Z,0
2016-02-16T05:00:51.802Z,0
2016-02-16T05:01:51.789Z,0
2016-02-16T05:02:51.745Z,0
2016-02-16T05:03:51.701Z,0
2016-02-16T05:04:51.673Z,0
2016-02-16T05:05:51.644Z,0
2016-02-16T05:06:51.615Z,0
2016-02-16T05:07:51.570Z,0
2016-02-16T05:08:51.543Z,0
2016-02-16T05:09:51.514Z,0
2016-02-16T05:10:51.470Z,0
2016-02-16T05:11:51.456Z,0
2016-02-16T05:12:51.412Z,0
2016-02-16T05:13:51.400Z,0
2016-02-16T05:14:51.340Z,0
2016-02-16T05:15:51.327Z,0
2016-02-16T05:16:51.283Z,0
2016-02-16T05:17:51.239Z,0
2016-02-16T05:18:50.491Z,0
2016-02-16T05:19:51.181Z,0
2016-02-16T05:20:51.152Z,0
2016-02-16T05:21:51.108Z,0
2016-02-16T05:22:51.080Z,0
2016-02-16T05:23:51.052Z,0
2016-02-16T05:24:51.008Z,0
2016-02-16T05:25:50.979Z,0
2016-02-16T05:26:50.950Z,0
2016-02-16T05:27:50.922Z,0
2016-02-16T05:28:50.893Z,0
2016-02-16T05:29:50.849Z,0
2016-02-16T05:30:50.821Z,0
2016-02-16T05:31:50.777Z,0
2016-02-16T05:32:50.779Z,0
2016-02-16T05:33:50.718Z,0
2016-02-16T05:34:50.690Z,0
2016-02-16T05:35:50.646Z,0
2016-02-16T05:36:50.618Z,0
2016-02-16T05:37:50.574Z,0
2016-02-16T05:38:50.561Z,0
2016-02-16T05:39:50.516Z,0
2016-02-16T05:40:50.488Z,0
2016-02-16T05:41:50.459Z,0
2016-02-16T05:42:50.414Z,0
2016-02-16T05:43:50.386Z,0
2016-02-16T05:44:50.342Z,0
2016-02-16T05:45:50.314Z,0
2016-02-16T05:46:50.270Z,0
2016-02-16T05:47:50.242Z,0
2016-02-16T05:48:50.244Z,0
2016-02-16T05:49:50.183Z,0
2016-02-16T05:50:50.171Z,0
2016-02-16T05:51:50.111Z,0
2016-02-16T05:52:50.099Z,0
2016-02-16T05:53:50.038Z,0
2016-02-16T05:54:50.010Z,0
2016-02-16T05:55:49.982Z,0
2016-02-16T05:56:49.937Z,0
2016-02-16T05:57:49.925Z,0
2016-02-16T05:58:49.880Z,0
2016-02-16T05:59:49.867Z,0
2016-02-16T06:00:49.808Z,0
2016-02-16T06:01:49.779Z,0
2016-02-16T06:02:49.751Z,0
2016-02-16T06:03:49.706Z,0
2016-02-16T06:04:49.631Z,0
2016-02-16T06:05:49.650Z,0
2016-02-16T06:06:49.636Z,0
2016-02-16T06:07:49.577Z,0
2016-02-16T06:08:49.564Z,4
2016-02-16T06:09:49.504Z,4
2016-02-16T06:10:49.491Z,0
2016-02-16T06:11:49.447Z,4
2016-02-16T06:12:49.418Z,4
2016-02-16T06:13:49.390Z,4
2016-02-16T06:14:49.346Z,4
2016-02-16T06:15:49.318Z,4
2016-02-16T06:16:49.273Z,4
2016-02-16T06:17:49.260Z,8
2016-02-16T06:18:49.216Z,8
2016-02-16T06:19:49.187Z,12
2016-02-16T06:20:49.143Z,12
2016-02-16T06:21:49.130Z,16
2016-02-16T06:22:49.071Z,20
2016-02-16T06:23:49.042Z,24
2016-02-16T06:24:49.014Z,28
2016-02-16T06:25:48.984Z,36
2016-02-16T06:26:48.940Z,40
2016-02-16T06:27:48.943Z,48
2016-02-16T06:28:48.883Z,56
2016-02-16T06:29:48.839Z,68
2016-02-16T06:30:48.811Z,76
2016-02-16T06:31:48.782Z,88
2016-02-16T06:32:48.754Z,104
2016-02-16T06:33:48.709Z,116
2016-02-16T06:34:48.697Z,132
2016-02-16T06:35:48.637Z,152
2016-02-16T06:36:48.625Z,172
2016-02-16T06:37:48.579Z,192
2016-02-16T06:38:48.552Z,216
2016-02-16T06:39:48.507Z,240
2016-02-16T06:40:48.478Z,272
2016-02-16T06:41:48.434Z,300
2016-02-16T06:42:48.421Z,328
2016-02-16T06:43:48.361Z,364
2016-02-16T06:44:48.348Z,396
2016-02-16T06:45:48.304Z,432
2016-02-16T06:46:48.276Z,472
2016-02-16T06:47:48.246Z,512
2016-02-16T06:48:48.219Z,556
2016-02-16T06:49:48.174Z,600
2016-02-16T06:50:48.146Z,648
2016-02-16T06:51:48.101Z,696
2016-02-16T06:52:48.073Z,748
2016-02-16T06:53:48.045Z,792
2016-02-16T06:54:48.016Z,848
2016-02-16T06:55:47.973Z,900
2016-02-16T06:56:47.943Z,952
2016-02-16T06:57:47.899Z,1008
2016-02-16T06:58:47.870Z,1060
2016-02-16T06:59:47.842Z,1124
2016-02-16T07:00:47.814Z,1184
2016-02-16T07:01:47.769Z,1244
2016-02-16T07:02:47.756Z,1304
2016-02-16T07:03:47.712Z,1368
2016-02-16T07:04:47.714Z,1428
2016-02-16T07:05:47.639Z,1492
2016-02-16T07:06:47.627Z,1552
2016-02-16T07:07:47.566Z,1616
2016-02-16T07:08:47.553Z,1680
2016-02-16T07:09:47.510Z,1740
2016-02-16T07:10:47.481Z,1800
2016-02-16T07:11:47.452Z,1856
2016-02-16T07:12:47.393Z,1916
2016-02-16T07:13:47.364Z,1976
2016-02-16T07:14:47.351Z,2032
2016-02-16T07:15:47.307Z,2096
2016-02-16T07:16:47.294Z,2172
2016-02-16T07:17:47.234Z,2248
2016-02-16T07:18:47.221Z,2304
2016-02-16T07:19:47.177Z,2356
2016-02-16T07:20:47.164Z,2420
2016-02-16T07:21:47.104Z,2468
2016-02-16T07:22:47.059Z,2516
2016-02-16T07:23:47.032Z,2548
2016-02-16T07:24:47.018Z,2588
2016-02-16T07:25:46.974Z,2624
2016-02-16T07:26:46.931Z,2660
2016-02-16T07:27:46.918Z,2700
2016-02-16T07:28:46.889Z,2740
2016-02-16T07:29:46.845Z,2780
2016-02-16T07:30:46.817Z,2828
2016-02-16T07:31:46.787Z,2872
2016-02-16T07:32:46.587Z,2916
2016-02-16T07:33:46.714Z,2956
2016-02-16T07:34:46.686Z,3000
2016-02-16T07:35:46.642Z,3040
2016-02-16T07:36:46.613Z,3084
2016-02-16T07:37:46.569Z,3132
2016-02-16T07:38:46.556Z,3180
2016-02-16T07:39:46.512Z,3236
2016-02-16T07:40:46.483Z,3276
2016-02-16T07:41:46.455Z,3328
2016-02-16T07:42:46.410Z,3388
2016-02-16T07:43:46.367Z,3416
2016-02-16T07:44:46.354Z,3444
2016-02-16T07:45:46.310Z,3476
2016-02-16T07:46:46.280Z,3512
2016-02-16T07:47:46.252Z,3540
2016-02-16T07:48:46.208Z,3576
2016-02-16T07:49:46.571Z,3624
2016-02-16T07:50:46.151Z,3664
2016-02-16T07:51:46.107Z,3704
2016-02-16T07:52:46.079Z,3740
2016-02-16T07:53:46.049Z,3768
2016-02-16T07:54:46.006Z,3808
2016-02-16T07:55:45.993Z,3840
2016-02-16T07:56:45.948Z,3880
2016-02-16T07:57:45.920Z,3908
2016-02-16T07:58:45.876Z,3936
2016-02-16T07:59:45.847Z,3964
2016-02-16T08:00:45.818Z,3992
2016-02-16T08:01:45.775Z,4016
2016-02-16T08:02:45.777Z,4040
2016-02-16T08:03:45.718Z,4068
2016-02-16T08:04:45.704Z,4096
2016-02-16T08:05:45.645Z,4124
2016-02-16T08:06:45.631Z,4152
2016-02-16T08:07:45.619Z,4176
2016-02-16T08:08:45.558Z,4200
2016-02-16T08:09:45.547Z,4228
2016-02-16T08:10:45.502Z,4256
2016-02-16T08:11:45.473Z,4276
2016-02-16T08:12:45.427Z,4296
2016-02-16T08:13:45.398Z,4312
2016-02-16T08:14:45.354Z,4312
2016-02-16T08:15:45.325Z,4320
2016-02-16T08:16:45.296Z,4340
2016-02-16T08:17:45.283Z,4360
2016-02-16T08:18:45.239Z,4380
2016-02-16T08:19:45.211Z,4396
2016-02-16T08:20:45.166Z,4408
2016-02-16T08:21:45.201Z,4428
2016-02-16T08:22:45.171Z,4444
2016-02-16T08:23:45.081Z,4472
2016-02-16T08:24:45.037Z,4496
2016-02-16T08:25:45.008Z,4528
2016-02-16T08:26:44.979Z,4552
2016-02-16T08:27:44.935Z,4572
2016-02-16T08:28:44.923Z,4592
2016-02-16T08:29:44.879Z,4612
2016-02-16T08:30:44.850Z,4644
2016-02-16T08:31:44.806Z,4672
2016-02-16T08:32:44.792Z,4692
2016-02-16T08:33:44.748Z,4704
2016-02-16T08:34:44.720Z,4728
2016-02-16T08:35:44.675Z,4748
2016-02-16T08:36:44.647Z,4772
2016-02-16T08:37:44.619Z,4812
2016-02-16T08:38:44.590Z,4860
2016-02-16T08:39:44.545Z,4884
2016-02-16T08:40:44.517Z,4916
2016-02-16T08:41:44.520Z,4948
2016-02-16T08:42:44.460Z,4984
2016-02-16T08:43:44.431Z,5008
2016-02-16T08:44:44.388Z,5020
2016-02-16T08:45:44.374Z,5044
2016-02-16T08:46:44.315Z,5072
2016-02-16T08:47:44.302Z,5108
2016-02-16T08:48:44.258Z,5144
2016-02-16T08:49:44.073Z,5180
2016-02-16T08:50:44.185Z,5208
2016-02-16T08:51:44.406Z,5220
2016-02-16T08:52:44.127Z,5268
2016-02-16T08:53:44.099Z,5336
2016-02-16T08:54:44.071Z,5336
2016-02-16T08:55:44.057Z,5328
2016-02-16T08:56:43.998Z,5336
2016-02-16T08:57:43.985Z,5344
2016-02-16T08:58:43.940Z,5356
2016-02-16T08:59:43.913Z,5356
2016-02-16T09:00:43.899Z,5368
2016-02-16T09:01:43.918Z,5396
2016-02-16T09:02:43.811Z,5396
2016-02-16T09:03:43.782Z,5396
2016-02-16T09:04:43.753Z,5400
2016-02-16T09:05:43.725Z,5408
2016-02-16T09:06:43.681Z,5408
2016-02-16T09:07:43.668Z,5416
2016-02-16T09:08:43.608Z,5432
2016-02-16T09:09:43.595Z,5472
2016-02-16T09:10:43.551Z,5504
2016-02-16T09:11:43.523Z,5524
2016-02-16T09:12:43.541Z,5488
2016-02-16T09:13:43.372Z,5436
2016-02-16T09:14:43.437Z,5416
2016-02-16T09:15:43.424Z,5428
2016-02-16T09:16:43.380Z,5412
2016-02-16T09:17:43.335Z,5404
2016-02-16T09:18:43.307Z,5440
2016-02-16T09:19:43.278Z,5464
2016-02-16T09:20:43.265Z,5444
2016-02-16T09:21:43.206Z,5404
2016-02-16T09:22:43.193Z,5348
2016-02-16T09:23:43.164Z,5328
2016-02-16T09:24:43.121Z,5308
2016-02-16T09:25:43.091Z,5296
2016-02-16T09:26:43.047Z,5288
2016-02-16T09:27:43.082Z,5300
2016-02-16T09:28:42.990Z,5312
2016-02-16T09:29:42.962Z,5340
2016-02-16T09:30:42.949Z,5408
2016-02-16T09:31:42.904Z,5492
2016-02-16T09:32:42.876Z,5564
2016-02-16T09:33:42.832Z,5624
2016-02-16T09:34:42.819Z,5728
2016-02-16T09:35:42.759Z,5756
2016-02-16T09:36:42.746Z,5768
2016-02-16T09:37:42.702Z,5996
2016-02-16T09:38:42.674Z,6512
2016-02-16T09:39:42.645Z,7120
2016-02-16T09:40:42.632Z,7284
2016-02-16T09:41:42.572Z,7156
2016-02-16T09:42:42.544Z,6872
2016-02-16T09:43:42.515Z,6516
2016-02-16T09:44:42.503Z,6568
2016-02-16T09:45:42.458Z,6892
2016-02-16T09:46:42.430Z,7380
2016-02-16T09:47:42.385Z,7864
2016-02-16T09:48:42.356Z,7548
2016-02-16T09:49:42.343Z,7068
2016-02-16T09:50:42.316Z,6552
2016-02-16T09:51:42.287Z,6488
2016-02-16T09:52:42.242Z,6324
2016-02-16T09:53:42.214Z,6104
2016-02-16T09:54:42.169Z,5972
2016-02-16T09:55:42.157Z,5964
2016-02-16T09:56:42.112Z,6068
2016-02-16T09:57:42.099Z,6124
2016-02-16T09:58:42.055Z,6120
2016-02-16T09:59:42.027Z,6192
2016-02-16T10:00:41.999Z,6192
2016-02-16T10:01:41.970Z,6280
2016-02-16T10:02:41.941Z,6436
2016-02-16T10:03:41.896Z,6588
2016-02-16T10:04:41.899Z,6752
2016-02-16T10:05:41.840Z,7044
2016-02-16T10:06:41.812Z,7636
2016-02-16T10:07:41.782Z,8276
2016-02-16T10:08:41.754Z,8152
2016-02-16T10:09:41.725Z,7528
2016-02-16T10:10:41.697Z,7288
2016-02-16T10:11:41.653Z,7184
2016-02-16T10:12:40.905Z,6904
2016-02-16T10:13:41.612Z,6772
2016-02-16T10:14:41.881Z,6800
2016-02-16T10:15:41.539Z,6892
2016-02-16T10:16:41.729Z,7080
2016-02-16T10:17:41.481Z,7324
2016-02-16T10:18:41.469Z,7452
2016-02-16T10:19:41.409Z,7492
2016-02-16T10:20:41.397Z,7632
2016-02-16T10:21:41.352Z,7568
2016-02-16T10:22:41.339Z,7444
2016-02-16T10:23:41.450Z,7404
2016-02-16T10:24:41.282Z,7288
2016-02-16T10:25:41.237Z,7012
2016-02-16T10:26:41.208Z,6704
2016-02-16T10:27:41.180Z,6628
2016-02-16T10:28:41.136Z,6548
2016-02-16T10:29:41.483Z,6360
2016-02-16T10:30:41.094Z,6256
2016-02-16T10:31:41.051Z,6204
2016-02-16T10:32:41.021Z,6200
2016-02-16T10:33:40.993Z,6212
2016-02-16T10:34:40.948Z,6216
2016-02-16T10:35:40.999Z,6216
2016-02-16T10:36:40.893Z,6200
2016-02-16T10:37:40.879Z,6196
2016-02-16T10:38:40.834Z,6236
2016-02-16T10:39:41.118Z,6212
2016-02-16T10:40:40.778Z,6236
2016-02-16T10:41:40.748Z,6276
2016-02-16T10:42:40.705Z,6316
2016-02-16T10:43:40.708Z,6316
2016-02-16T10:44:40.664Z,6280
2016-02-16T10:45:40.635Z,6260
2016-02-16T10:46:40.622Z,6260
2016-02-16T10:47:40.952Z,6292
2016-02-16T10:48:40.643Z,6336
2016-02-16T10:49:40.506Z,6360
2016-02-16T10:50:40.477Z,6396
2016-02-16T10:51:40.448Z,6424
2016-02-16T10:52:40.419Z,6368
2016-02-16T10:53:40.375Z,6256
2016-02-16T10:54:40.346Z,6160
2016-02-16T10:55:40.396Z,6120
2016-02-16T10:56:40.337Z,6128
2016-02-16T10:57:40.261Z,6152
2016-02-16T10:58:40.249Z,6152
2016-02-16T10:59:40.219Z,6136
2016-02-16T11:00:40.191Z,6120
2016-02-16T11:01:40.162Z,6096
2016-02-16T11:02:40.119Z,6132
2016-02-16T11:03:40.074Z,6144
2016-02-16T11:04:40.061Z,6152
2016-02-16T11:05:40.017Z,6188
2016-02-16T11:06:39.988Z,6172
2016-02-16T11:07:39.959Z,6160
2016-02-16T11:08:39.932Z,6248
2016-02-16T11:09:39.918Z,6316
2016-02-16T11:10:39.874Z,6380
2016-02-16T11:11:39.846Z,6352
2016-02-16T11:12:39.817Z,6300
2016-02-16T11:13:39.804Z,6316
2016-02-16T11:14:39.744Z,6348
2016-02-16T11:15:39.747Z,6336
2016-02-16T11:16:39.702Z,6324
2016-02-16T11:17:39.675Z,6248
2016-02-16T11:18:39.646Z,6208
2016-02-16T11:19:39.617Z,6304
2016-02-16T11:20:39.573Z,6452
2016-02-16T11:21:39.544Z,6428
2016-02-16T11:22:39.531Z,6288
2016-02-16T11:23:39.487Z,6356
2016-02-16T11:24:39.490Z,6340
2016-02-16T11:25:39.430Z,6280
2016-02-16T11:26:39.417Z,6240
2016-02-16T11:27:39.373Z,6224
2016-02-16T11:28:39.271Z,6276
2016-02-16T11:29:39.399Z,6280
2016-02-16T11:30:39.792Z,6264
2016-02-16T11:31:39.388Z,6284
2016-02-16T11:32:39.329Z,6252
2016-02-16T11:33:39.190Z,6224
2016-02-16T11:34:39.662Z,6216
2016-02-16T11:35:39.227Z,6224
2016-02-16T11:36:39.261Z,6220
2016-02-16T11:37:39.076Z,6276
2016-02-16T11:38:39.079Z,6292
2016-02-16T11:39:39.020Z,6232
2016-02-16T11:40:38.991Z,6236
2016-02-16T11:41:38.962Z,6276
2016-02-16T11:42:39.340Z,6260
2016-02-16T11:43:39.373Z,6248
2016-02-16T11:44:39.517Z,6292
2016-02-16T11:45:39.817Z,6296
2016-02-16T11:46:39.445Z,6300
2016-02-16T11:47:39.588Z,6304
2016-02-16T11:48:39.137Z,6328
2016-02-16T11:49:38.733Z,6348
2016-02-16T11:50:38.767Z,6364
2016-02-16T11:51:38.661Z,6360
2016-02-16T11:52:38.633Z,6360
2016-02-16T11:53:38.619Z,6328
2016-02-16T11:54:38.575Z,6288
2016-02-16T11:55:38.719Z,6276
2016-02-16T11:56:38.518Z,6356
2016-02-16T11:57:38.474Z,6388
2016-02-16T11:58:38.461Z,6412
2016-02-16T11:59:38.433Z,6416
2016-02-16T12:00:38.388Z,6460
2016-02-16T12:01:38.376Z,6492
2016-02-16T12:02:38.190Z,6512
2016-02-16T12:03:38.350Z,6524
2016-02-16T12:04:38.290Z,6524
2016-02-16T12:05:38.282Z,6504
2016-02-16T12:06:38.238Z,6472
2016-02-16T12:07:38.335Z,6464
2016-02-16T12:08:38.149Z,6488
2016-02-16T12:09:38.168Z,6548
2016-02-16T12:10:38.124Z,6556
2016-02-16T12:11:38.096Z,6548
2016-02-16T12:12:38.239Z,6540
2016-02-16T12:13:38.054Z,6564
2016-02-16T12:14:38.010Z,6584
2016-02-16T12:15:37.951Z,6576
2016-02-16T12:16:37.937Z,6552
2016-02-16T12:17:37.893Z,6560
2016-02-16T12:18:37.881Z,6616
2016-02-16T12:19:37.867Z,6676
2016-02-16T12:20:37.807Z,6680
2016-02-16T12:21:37.794Z,6704
2016-02-16T12:22:37.750Z,6696
2016-02-16T12:23:37.723Z,6732
2016-02-16T12:24:37.693Z,6744
2016-02-16T12:25:37.665Z,6736
2016-02-16T12:26:37.511Z,6756
2016-02-16T12:27:37.622Z,6772
2016-02-16T12:28:37.595Z,6752
2016-02-16T12:29:37.550Z,6692
2016-02-16T12:30:37.522Z,6600
2016-02-16T12:31:37.494Z,6528
2016-02-16T12:32:37.308Z,6512
2016-02-16T12:33:37.452Z,6488
2016-02-16T12:34:37.392Z,6412
2016-02-16T12:35:37.363Z,6348
2016-02-16T12:36:37.351Z,6376
2016-02-16T12:37:37.338Z,6364
2016-02-16T12:38:37.309Z,6332
2016-02-16T12:39:37.265Z,6296
2016-02-16T12:40:37.235Z,6232
2016-02-16T12:41:37.223Z,6140
2016-02-16T12:42:37.164Z,6100
2016-02-16T12:43:37.135Z,6116
2016-02-16T12:44:37.106Z,6180
2016-02-16T12:45:37.094Z,6240
2016-02-16T12:46:37.065Z,6284
2016-02-16T12:47:37.020Z,6308
2016-02-16T12:48:37.007Z,6376
2016-02-16T12:49:36.964Z,6404
2016-02-16T12:50:36.950Z,6376
2016-02-16T12:51:36.907Z,6412
2016-02-16T12:52:36.893Z,6444
2016-02-16T12:53:36.850Z,6460
2016-02-16T12:54:36.836Z,6472
2016-02-16T12:55:36.792Z,6460
2016-02-16T12:56:36.779Z,6432
2016-02-16T12:57:36.766Z,6428
2016-02-16T12:58:36.707Z,6444
2016-02-16T12:59:36.678Z,6492
2016-02-16T13:00:36.649Z,6520
2016-02-16T13:01:36.621Z,6536
2016-02-16T13:02:36.592Z,6556
2016-02-16T13:03:36.594Z,6564
2016-02-16T13:04:36.536Z,6576
2016-02-16T13:05:36.507Z,6572
2016-02-16T13:06:36.478Z,6540
2016-02-16T13:07:36.449Z,6520
2016-02-16T13:08:36.421Z,6500
2016-02-16T13:09:36.392Z,6500
2016-02-16T13:10:36.363Z,6516
2016-02-16T13:11:36.351Z,6516
2016-02-16T13:12:36.306Z,6508
2016-02-16T13:13:36.279Z,6436
2016-02-16T13:14:36.296Z,6364
2016-02-16T13:15:36.221Z,6340
2016-02-16T13:16:36.192Z,6380
2016-02-16T13:17:36.179Z,6408
2016-02-16T13:18:36.135Z,6432
2016-02-16T13:19:36.106Z,6460
2016-02-16T13:20:36.078Z,6456
2016-02-16T13:21:36.065Z,6484
2016-02-16T13:22:36.037Z,6508
2016-02-16T13:23:36.008Z,6488
2016-02-16T13:24:35.995Z,6452
2016-02-16T13:25:35.935Z,6456
2016-02-16T13:26:36.110Z,6460
2016-02-16T13:27:35.956Z,6452
2016-02-16T13:28:35.850Z,6472
2016-02-16T13:29:35.822Z,6468
2016-02-16T13:30:35.793Z,6500
2016-02-16T13:31:35.795Z,6508
2016-02-16T13:32:35.751Z,6528
2016-02-16T13:33:35.707Z,6536
2016-02-16T13:34:35.679Z,6540
2016-02-16T13:35:35.681Z,6544
2016-02-16T13:36:35.621Z,6548
2016-02-16T13:37:35.585Z,6504
2016-02-16T13:38:35.556Z,6424
2016-02-16T13:39:35.513Z,6340
2016-02-16T13:40:35.454Z,6312
2016-02-16T13:41:35.425Z,6316
2016-02-16T13:42:35.372Z,6324
2016-02-16T13:43:35.354Z,6392
2016-02-16T13:44:35.319Z,6452
2016-02-16T13:45:35.286Z,6476
2016-02-16T13:46:35.236Z,6460
2016-02-16T13:47:35.204Z,6452
2016-02-16T13:48:35.174Z,6400
2016-02-16T13:49:35.144Z,6344
2016-02-16T13:50:35.113Z,6312
2016-02-16T13:51:35.082Z,6280
2016-02-16T13:52:35.068Z,6212
2016-02-16T13:53:35.024Z,6180
2016-02-16T13:54:34.994Z,6156
2016-02-16T13:55:34.965Z,6116
2016-02-16T13:56:34.950Z,6100
2016-02-16T13:57:34.922Z,6084